sensor_id;sensor_type;location;lat;lon;timestamp;P1;durP1;ratioP1;P2;durP2;ratioP2
19623;SDS011;9959;49.798;9.928;2023-06-10T00:00:29;15.45;;;11.38;;
19623;SDS011;9959;49.798;9.928;2023-06-10T00:02:58;16.52;;;11.07;;
19623;SDS011;9959;49.798;9.928;2023-06-10T00:05:26;15.82;;;11.13;;
19623;SDS011;9959;49.798;9.928;2023-06-10T00:07:56;15.23;;;11.95;;
19623;SDS011;9959;49.798;9.928;2023-06-10T00:10:24;15.88;;;11.80;;
19623;SDS011;9959;49.798;9.928;2023-06-10T00:12:52;14.60;;;11.88;;
19623;SDS011;9959;49.798;9.928;2023-06-10T00:15:19;15.23;;;11.32;;
19623;SDS011;9959;49.798;9.928;2023-06-10T00:17:46;15.77;;;11.63;;
19623;SDS011;9959;49.798;9.928;2023-06-10T00:20:13;19.92;;;11.52;;
19623;SDS011;9959;49.798;9.928;2023-06-10T00:22:39;17.60;;;11.77;;
19623;SDS011;9959;49.798;9.928;2023-06-10T00:25:08;16.90;;;12.10;;
19623;SDS011;9959;49.798;9.928;2023-06-10T00:27:37;14.73;;;11.95;;
19623;SDS011;9959;49.798;9.928;2023-06-10T00:30:04;15.27;;;12.00;;
19623;SDS011;9959;49.798;9.928;2023-06-10T00:32:34;13.93;;;11.57;;
19623;SDS011;9959;49.798;9.928;2023-06-10T00:35:02;16.90;;;13.40;;
19623;SDS011;9959;49.798;9.928;2023-06-10T00:37:30;19.05;;;12.73;;
19623;SDS011;9959;49.798;9.928;2023-06-10T00:39:56;17.05;;;11.93;;
19623;SDS011;9959;49.798;9.928;2023-06-10T00:42:23;14.68;;;12.23;;
19623;SDS011;9959;49.798;9.928;2023-06-10T00:44:50;15.70;;;12.60;;
19623;SDS011;9959;49.798;9.928;2023-06-10T00:47:19;14.50;;;12.35;;
19623;SDS011;9959;49.798;9.928;2023-06-10T00:49:47;21.10;;;12.48;;
19623;SDS011;9959;49.798;9.928;2023-06-10T00:52:15;16.90;;;12.27;;
19623;SDS011;9959;49.798;9.928;2023-06-10T00:54:43;16.90;;;11.80;;
19623;SDS011;9959;49.798;9.928;2023-06-10T00:57:10;15.48;;;12.68;;
19623;SDS011;9959;49.798;9.928;2023-06-10T00:59:40;15.60;;;12.43;;
19623;SDS011;9959;49.798;9.928;2023-06-10T01:02:09;26.13;;;13.50;;
19623;SDS011;9959;49.798;9.928;2023-06-10T01:04:36;16.70;;;12.93;;
19623;SDS011;9959;49.798;9.928;2023-06-10T01:07:12;16.17;;;13.40;;
19623;SDS011;9959;49.798;9.928;2023-06-10T01:15:03;17.52;;;13.18;;
19623;SDS011;9959;49.798;9.928;2023-06-10T01:17:31;15.93;;;12.02;;
19623;SDS011;9959;49.798;9.928;2023-06-10T01:19:58;18.13;;;12.77;;
19623;SDS011;9959;49.798;9.928;2023-06-10T01:22:26;16.52;;;13.15;;
19623;SDS011;9959;49.798;9.928;2023-06-10T01:24:58;16.48;;;13.25;;
19623;SDS011;9959;49.798;9.928;2023-06-10T01:27:27;17.50;;;13.02;;
19623;SDS011;9959;49.798;9.928;2023-06-10T01:30:03;17.00;;;13.32;;
19623;SDS011;9959;49.798;9.928;2023-06-10T01:32:37;16.15;;;12.75;;
19623;SDS011;9959;49.798;9.928;2023-06-10T01:35:07;15.00;;;12.57;;
19623;SDS011;9959;49.798;9.928;2023-06-10T01:37:35;19.38;;;13.88;;
19623;SDS011;9959;49.798;9.928;2023-06-10T01:40:05;17.70;;;13.05;;
19623;SDS011;9959;49.798;9.928;2023-06-10T01:42:34;19.35;;;13.70;;
19623;SDS011;9959;49.798;9.928;2023-06-10T01:45:02;18.25;;;13.75;;
19623;SDS011;9959;49.798;9.928;2023-06-10T01:47:29;15.30;;;12.30;;
19623;SDS011;9959;49.798;9.928;2023-06-10T01:49:56;18.00;;;14.18;;
19623;SDS011;9959;49.798;9.928;2023-06-10T01:52:23;16.45;;;13.70;;
19623;SDS011;9959;49.798;9.928;2023-06-10T01:54:51;16.55;;;14.05;;
19623;SDS011;9959;49.798;9.928;2023-06-10T01:57:18;16.80;;;14.18;;
19623;SDS011;9959;49.798;9.928;2023-06-10T01:59:45;15.65;;;12.98;;
19623;SDS011;9959;49.798;9.928;2023-06-10T02:02:12;18.08;;;13.85;;
19623;SDS011;9959;49.798;9.928;2023-06-10T02:04:39;18.15;;;13.25;;
19623;SDS011;9959;49.798;9.928;2023-06-10T02:07:06;16.90;;;13.32;;
19623;SDS011;9959;49.798;9.928;2023-06-10T02:09:33;18.25;;;13.60;;
19623;SDS011;9959;49.798;9.928;2023-06-10T02:12:04;22.38;;;13.68;;
19623;SDS011;9959;49.798;9.928;2023-06-10T02:14:32;18.83;;;13.57;;
19623;SDS011;9959;49.798;9.928;2023-06-10T02:17:00;19.70;;;14.57;;
19623;SDS011;9959;49.798;9.928;2023-06-10T02:19:27;17.58;;;13.82;;
19623;SDS011;9959;49.798;9.928;2023-06-10T02:21:54;17.05;;;13.40;;
19623;SDS011;9959;49.798;9.928;2023-06-10T02:24:21;17.38;;;13.45;;
19623;SDS011;9959;49.798;9.928;2023-06-10T02:26:48;18.73;;;13.93;;
19623;SDS011;9959;49.798;9.928;2023-06-10T02:29:15;16.30;;;13.95;;
19623;SDS011;9959;49.798;9.928;2023-06-10T02:31:42;17.83;;;13.95;;
19623;SDS011;9959;49.798;9.928;2023-06-10T02:34:09;21.58;;;14.60;;
19623;SDS011;9959;49.798;9.928;2023-06-10T02:36:36;18.73;;;13.35;;
19623;SDS011;9959;49.798;9.928;2023-06-10T02:39:03;18.15;;;14.55;;
19623;SDS011;9959;49.798;9.928;2023-06-10T02:41:33;22.50;;;13.98;;
19623;SDS011;9959;49.798;9.928;2023-06-10T02:44:00;23.20;;;15.50;;
19623;SDS011;9959;49.798;9.928;2023-06-10T02:46:27;17.95;;;14.02;;
19623;SDS011;9959;49.798;9.928;2023-06-10T02:48:55;16.10;;;13.63;;
19623;SDS011;9959;49.798;9.928;2023-06-10T02:51:22;16.27;;;13.57;;
19623;SDS011;9959;49.798;9.928;2023-06-10T02:53:49;20.83;;;14.98;;
19623;SDS011;9959;49.798;9.928;2023-06-10T02:56:16;20.58;;;15.20;;
19623;SDS011;9959;49.798;9.928;2023-06-10T02:58:43;18.05;;;15.13;;
19623;SDS011;9959;49.798;9.928;2023-06-10T03:01:10;19.92;;;14.35;;
19623;SDS011;9959;49.798;9.928;2023-06-10T03:03:37;19.95;;;14.60;;
19623;SDS011;9959;49.798;9.928;2023-06-10T03:06:12;20.25;;;14.55;;
19623;SDS011;9959;49.798;9.928;2023-06-10T03:08:39;20.30;;;14.52;;
19623;SDS011;9959;49.798;9.928;2023-06-10T03:11:06;18.42;;;14.55;;
19623;SDS011;9959;49.798;9.928;2023-06-10T03:13:33;18.13;;;15.15;;
19623;SDS011;9959;49.798;9.928;2023-06-10T03:16:00;18.02;;;14.27;;
19623;SDS011;9959;49.798;9.928;2023-06-10T03:18:27;18.58;;;14.35;;
19623;SDS011;9959;49.798;9.928;2023-06-10T03:20:54;19.55;;;15.10;;
19623;SDS011;9959;49.798;9.928;2023-06-10T03:23:22;22.45;;;14.23;;
19623;SDS011;9959;49.798;9.928;2023-06-10T03:25:49;21.35;;;15.20;;
19623;SDS011;9959;49.798;9.928;2023-06-10T03:28:16;22.08;;;15.55;;
19623;SDS011;9959;49.798;9.928;2023-06-10T03:30:43;20.33;;;14.85;;
19623;SDS011;9959;49.798;9.928;2023-06-10T03:33:10;21.20;;;15.30;;
19623;SDS011;9959;49.798;9.928;2023-06-10T03:35:36;20.23;;;15.45;;
19623;SDS011;9959;49.798;9.928;2023-06-10T03:38:03;20.02;;;15.68;;
19623;SDS011;9959;49.798;9.928;2023-06-10T03:40:30;25.58;;;15.82;;
19623;SDS011;9959;49.798;9.928;2023-06-10T03:42:58;21.67;;;15.88;;
19623;SDS011;9959;49.798;9.928;2023-06-10T03:45:25;21.05;;;15.85;;
19623;SDS011;9959;49.798;9.928;2023-06-10T03:47:55;23.77;;;15.35;;
19623;SDS011;9959;49.798;9.928;2023-06-10T03:50:22;24.55;;;15.70;;
19623;SDS011;9959;49.798;9.928;2023-06-10T03:52:50;17.63;;;14.02;;
19623;SDS011;9959;49.798;9.928;2023-06-10T03:55:17;22.73;;;15.45;;
19623;SDS011;9959;49.798;9.928;2023-06-10T03:57:44;17.25;;;14.23;;
19623;SDS011;9959;49.798;9.928;2023-06-10T04:00:11;18.55;;;15.05;;
19623;SDS011;9959;49.798;9.928;2023-06-10T04:02:38;21.10;;;15.70;;
19623;SDS011;9959;49.798;9.928;2023-06-10T04:05:17;18.00;;;14.02;;
19623;SDS011;9959;49.798;9.928;2023-06-10T04:07:45;22.40;;;15.10;;
19623;SDS011;9959;49.798;9.928;2023-06-10T04:10:12;17.70;;;14.88;;
19623;SDS011;9959;49.798;9.928;2023-06-10T04:12:39;17.88;;;14.52;;
19623;SDS011;9959;49.798;9.928;2023-06-10T04:15:06;25.30;;;13.93;;
19623;SDS011;9959;49.798;9.928;2023-06-10T04:17:34;19.10;;;13.70;;
19623;SDS011;9959;49.798;9.928;2023-06-10T04:20:01;20.65;;;14.30;;
19623;SDS011;9959;49.798;9.928;2023-06-10T04:22:30;17.70;;;13.80;;
19623;SDS011;9959;49.798;9.928;2023-06-10T04:24:57;19.02;;;13.93;;
19623;SDS011;9959;49.798;9.928;2023-06-10T04:27:24;17.20;;;13.85;;
19623;SDS011;9959;49.798;9.928;2023-06-10T04:29:51;19.95;;;13.45;;
19623;SDS011;9959;49.798;9.928;2023-06-10T04:32:18;18.63;;;14.25;;
19623;SDS011;9959;49.798;9.928;2023-06-10T04:34:45;22.88;;;15.30;;
19623;SDS011;9959;49.798;9.928;2023-06-10T04:37:12;24.35;;;15.18;;
19623;SDS011;9959;49.798;9.928;2023-06-10T04:39:39;22.73;;;16.00;;
19623;SDS011;9959;49.798;9.928;2023-06-10T04:42:07;25.95;;;14.77;;
19623;SDS011;9959;49.798;9.928;2023-06-10T04:44:34;18.65;;;14.13;;
19623;SDS011;9959;49.798;9.928;2023-06-10T04:47:01;22.02;;;14.70;;
19623;SDS011;9959;49.798;9.928;2023-06-10T04:49:28;17.85;;;14.55;;
19623;SDS011;9959;49.798;9.928;2023-06-10T04:51:56;22.65;;;14.40;;
19623;SDS011;9959;49.798;9.928;2023-06-10T04:54:22;18.27;;;14.85;;
19623;SDS011;9959;49.798;9.928;2023-06-10T04:56:49;17.23;;;13.52;;
19623;SDS011;9959;49.798;9.928;2023-06-10T04:59:16;22.50;;;14.80;;
19623;SDS011;9959;49.798;9.928;2023-06-10T05:01:43;16.50;;;13.63;;
19623;SDS011;9959;49.798;9.928;2023-06-10T05:04:10;17.98;;;13.77;;
19623;SDS011;9959;49.798;9.928;2023-06-10T05:06:37;19.50;;;13.88;;
19623;SDS011;9959;49.798;9.928;2023-06-10T05:09:03;17.35;;;13.90;;
19623;SDS011;9959;49.798;9.928;2023-06-10T05:11:30;16.73;;;13.00;;
19623;SDS011;9959;49.798;9.928;2023-06-10T05:13:58;18.35;;;13.45;;
19623;SDS011;9959;49.798;9.928;2023-06-10T05:16:24;20.83;;;13.48;;
19623;SDS011;9959;49.798;9.928;2023-06-10T05:18:51;18.63;;;12.50;;
19623;SDS011;9959;49.798;9.928;2023-06-10T05:21:18;16.67;;;12.30;;
19623;SDS011;9959;49.798;9.928;2023-06-10T05:23:45;15.15;;;11.93;;
19623;SDS011;9959;49.798;9.928;2023-06-10T05:26:12;14.18;;;12.18;;
19623;SDS011;9959;49.798;9.928;2023-06-10T05:28:39;16.20;;;12.73;;
19623;SDS011;9959;49.798;9.928;2023-06-10T05:31:06;17.35;;;12.93;;
19623;SDS011;9959;49.798;9.928;2023-06-10T05:33:33;17.52;;;12.48;;
19623;SDS011;9959;49.798;9.928;2023-06-10T05:35:59;16.27;;;13.13;;
19623;SDS011;9959;49.798;9.928;2023-06-10T05:38:26;15.93;;;13.40;;
19623;SDS011;9959;49.798;9.928;2023-06-10T05:40:53;16.00;;;12.63;;
19623;SDS011;9959;49.798;9.928;2023-06-10T05:43:20;18.38;;;13.10;;
19623;SDS011;9959;49.798;9.928;2023-06-10T05:45:47;15.32;;;12.05;;
19623;SDS011;9959;49.798;9.928;2023-06-10T05:48:14;15.20;;;11.27;;
19623;SDS011;9959;49.798;9.928;2023-06-10T05:50:40;16.13;;;11.88;;
19623;SDS011;9959;49.798;9.928;2023-06-10T05:53:09;14.77;;;11.10;;
19623;SDS011;9959;49.798;9.928;2023-06-10T05:55:44;15.65;;;11.13;;
19623;SDS011;9959;49.798;9.928;2023-06-10T05:58:12;22.42;;;12.10;;
19623;SDS011;9959;49.798;9.928;2023-06-10T06:00:40;16.58;;;10.77;;
19623;SDS011;9959;49.798;9.928;2023-06-10T06:03:07;15.18;;;11.40;;
19623;SDS011;9959;49.798;9.928;2023-06-10T06:05:37;17.17;;;10.98;;
19623;SDS011;9959;49.798;9.928;2023-06-10T06:08:05;15.13;;;11.43;;
19623;SDS011;9959;49.798;9.928;2023-06-10T06:10:32;14.07;;;10.73;;
19623;SDS011;9959;49.798;9.928;2023-06-10T06:12:59;16.05;;;11.60;;
19623;SDS011;9959;49.798;9.928;2023-06-10T06:15:27;13.32;;;10.77;;
19623;SDS011;9959;49.798;9.928;2023-06-10T06:17:54;15.48;;;11.05;;
19623;SDS011;9959;49.798;9.928;2023-06-10T06:20:22;14.23;;;11.07;;
19623;SDS011;9959;49.798;9.928;2023-06-10T06:22:49;16.45;;;11.40;;
19623;SDS011;9959;49.798;9.928;2023-06-10T06:25:16;16.92;;;10.95;;
19623;SDS011;9959;49.798;9.928;2023-06-10T06:27:43;12.50;;;10.13;;
19623;SDS011;9959;49.798;9.928;2023-06-10T06:30:10;15.43;;;10.88;;
19623;SDS011;9959;49.798;9.928;2023-06-10T06:32:37;12.98;;;10.23;;
19623;SDS011;9959;49.798;9.928;2023-06-10T06:35:04;16.58;;;10.80;;
19623;SDS011;9959;49.798;9.928;2023-06-10T06:37:35;13.25;;;10.70;;
19623;SDS011;9959;49.798;9.928;2023-06-10T06:40:02;11.68;;;10.27;;
19623;SDS011;9959;49.798;9.928;2023-06-10T06:42:30;14.25;;;10.43;;
19623;SDS011;9959;49.798;9.928;2023-06-10T06:44:57;13.45;;;10.30;;
19623;SDS011;9959;49.798;9.928;2023-06-10T06:47:24;12.57;;;10.05;;
19623;SDS011;9959;49.798;9.928;2023-06-10T06:49:51;14.60;;;9.98;;
19623;SDS011;9959;49.798;9.928;2023-06-10T06:52:18;12.48;;;9.85;;
19623;SDS011;9959;49.798;9.928;2023-06-10T06:54:45;15.45;;;11.07;;
19623;SDS011;9959;49.798;9.928;2023-06-10T06:57:12;15.75;;;10.10;;
19623;SDS011;9959;49.798;9.928;2023-06-10T06:59:39;12.98;;;10.73;;
19623;SDS011;9959;49.798;9.928;2023-06-10T07:02:06;13.25;;;10.85;;
19623;SDS011;9959;49.798;9.928;2023-06-10T07:04:33;17.85;;;10.23;;
19623;SDS011;9959;49.798;9.928;2023-06-10T07:06:59;14.32;;;11.13;;
19623;SDS011;9959;49.798;9.928;2023-06-10T07:09:26;13.18;;;10.60;;
19623;SDS011;9959;49.798;9.928;2023-06-10T07:11:54;15.02;;;10.65;;
19623;SDS011;9959;49.798;9.928;2023-06-10T07:14:21;12.93;;;10.50;;
19623;SDS011;9959;49.798;9.928;2023-06-10T07:16:48;12.95;;;10.77;;
19623;SDS011;9959;49.798;9.928;2023-06-10T07:19:16;16.27;;;10.60;;
19623;SDS011;9959;49.798;9.928;2023-06-10T07:21:43;15.60;;;10.00;;
19623;SDS011;9959;49.798;9.928;2023-06-10T07:24:09;16.85;;;9.98;;
19623;SDS011;9959;49.798;9.928;2023-06-10T07:26:36;13.18;;;9.68;;
19623;SDS011;9959;49.798;9.928;2023-06-10T07:29:03;13.68;;;10.23;;
19623;SDS011;9959;49.798;9.928;2023-06-10T07:31:30;14.10;;;10.60;;
19623;SDS011;9959;49.798;9.928;2023-06-10T07:33:57;13.13;;;9.95;;
19623;SDS011;9959;49.798;9.928;2023-06-10T07:36:24;14.60;;;10.13;;
19623;SDS011;9959;49.798;9.928;2023-06-10T07:38:56;12.43;;;10.07;;
19623;SDS011;9959;49.798;9.928;2023-06-10T07:41:24;11.05;;;9.93;;
19623;SDS011;9959;49.798;9.928;2023-06-10T07:43:54;14.77;;;10.20;;
19623;SDS011;9959;49.798;9.928;2023-06-10T07:46:21;11.20;;;10.10;;
19623;SDS011;9959;49.798;9.928;2023-06-10T07:48:49;13.95;;;9.32;;
19623;SDS011;9959;49.798;9.928;2023-06-10T07:51:16;12.13;;;9.82;;
19623;SDS011;9959;49.798;9.928;2023-06-10T07:53:46;12.80;;;9.68;;
19623;SDS011;9959;49.798;9.928;2023-06-10T07:56:13;9.65;;;8.75;;
19623;SDS011;9959;49.798;9.928;2023-06-10T07:58:40;9.82;;;8.90;;
19623;SDS011;9959;49.798;9.928;2023-06-10T08:01:07;10.82;;;9.77;;
19623;SDS011;9959;49.798;9.928;2023-06-10T08:03:34;11.40;;;9.10;;
19623;SDS011;9959;49.798;9.928;2023-06-10T08:06:01;9.13;;;8.23;;
19623;SDS011;9959;49.798;9.928;2023-06-10T08:08:27;10.00;;;8.40;;
19623;SDS011;9959;49.798;9.928;2023-06-10T08:10:54;9.73;;;8.68;;
19623;SDS011;9959;49.798;9.928;2023-06-10T08:13:21;10.32;;;9.02;;
19623;SDS011;9959;49.798;9.928;2023-06-10T08:15:48;9.65;;;8.65;;
19623;SDS011;9959;49.798;9.928;2023-06-10T08:18:17;10.00;;;9.05;;
19623;SDS011;9959;49.798;9.928;2023-06-10T08:20:43;10.23;;;8.95;;
19623;SDS011;9959;49.798;9.928;2023-06-10T08:23:10;11.73;;;8.55;;
19623;SDS011;9959;49.798;9.928;2023-06-10T08:25:38;12.57;;;8.27;;
19623;SDS011;9959;49.798;9.928;2023-06-10T08:28:04;13.73;;;8.63;;
19623;SDS011;9959;49.798;9.928;2023-06-10T08:30:31;10.63;;;9.00;;
19623;SDS011;9959;49.798;9.928;2023-06-10T08:32:59;9.68;;;8.77;;
19623;SDS011;9959;49.798;9.928;2023-06-10T08:35:26;13.77;;;8.63;;
19623;SDS011;9959;49.798;9.928;2023-06-10T08:37:53;10.50;;;8.95;;
19623;SDS011;9959;49.798;9.928;2023-06-10T08:40:20;11.43;;;8.18;;
19623;SDS011;9959;49.798;9.928;2023-06-10T08:45:53;10.38;;;7.80;;
19623;SDS011;9959;49.798;9.928;2023-06-10T08:48:24;11.35;;;7.65;;
19623;SDS011;9959;49.798;9.928;2023-06-10T08:50:56;9.43;;;7.97;;
19623;SDS011;9959;49.798;9.928;2023-06-10T08:53:24;11.23;;;7.97;;
19623;SDS011;9959;49.798;9.928;2023-06-10T08:55:53;8.25;;;7.45;;
19623;SDS011;9959;49.798;9.928;2023-06-10T08:58:23;9.82;;;8.07;;
19623;SDS011;9959;49.798;9.928;2023-06-10T09:00:51;8.48;;;7.63;;
19623;SDS011;9959;49.798;9.928;2023-06-10T09:03:19;8.52;;;7.72;;
19623;SDS011;9959;49.798;9.928;2023-06-10T09:05:46;8.77;;;7.85;;
19623;SDS011;9959;49.798;9.928;2023-06-10T09:08:15;8.25;;;7.03;;
19623;SDS011;9959;49.798;9.928;2023-06-10T09:10:42;8.07;;;7.28;;
19623;SDS011;9959;49.798;9.928;2023-06-10T09:13:09;9.27;;;7.65;;
19623;SDS011;9959;49.798;9.928;2023-06-10T09:15:36;8.15;;;7.30;;
19623;SDS011;9959;49.798;9.928;2023-06-10T09:18:02;8.63;;;7.28;;
19623;SDS011;9959;49.798;9.928;2023-06-10T09:20:31;9.73;;;7.00;;
19623;SDS011;9959;49.798;9.928;2023-06-10T09:22:59;7.32;;;6.70;;
19623;SDS011;9959;49.798;9.928;2023-06-10T09:25:36;8.43;;;6.70;;
19623;SDS011;9959;49.798;9.928;2023-06-10T09:28:04;7.50;;;6.80;;
19623;SDS011;9959;49.798;9.928;2023-06-10T09:30:38;7.43;;;6.72;;
19623;SDS011;9959;49.798;9.928;2023-06-10T09:33:12;8.75;;;6.80;;
19623;SDS011;9959;49.798;9.928;2023-06-10T09:35:47;7.68;;;6.97;;
19623;SDS011;9959;49.798;9.928;2023-06-10T09:38:28;7.95;;;7.15;;
19623;SDS011;9959;49.798;9.928;2023-06-10T09:41:05;6.30;;;5.65;;
19623;SDS011;9959;49.798;9.928;2023-06-10T09:43:43;7.78;;;6.63;;
19623;SDS011;9959;49.798;9.928;2023-06-10T09:46:16;7.05;;;6.40;;
19623;SDS011;9959;49.798;9.928;2023-06-10T09:48:45;6.60;;;6.00;;
19623;SDS011;9959;49.798;9.928;2023-06-10T09:51:13;6.40;;;5.80;;
19623;SDS011;9959;49.798;9.928;2023-06-10T09:53:41;8.05;;;6.00;;
19623;SDS011;9959;49.798;9.928;2023-06-10T09:56:08;6.47;;;5.88;;
19623;SDS011;9959;49.798;9.928;2023-06-10T09:58:39;6.38;;;5.70;;
19623;SDS011;9959;49.798;9.928;2023-06-10T10:01:10;6.95;;;6.32;;
19623;SDS011;9959;49.798;9.928;2023-06-10T10:03:47;6.50;;;5.90;;
19623;SDS011;9959;49.798;9.928;2023-06-10T10:06:17;6.43;;;5.82;;
19623;SDS011;9959;49.798;9.928;2023-06-10T10:08:46;6.10;;;5.60;;
19623;SDS011;9959;49.798;9.928;2023-06-10T10:11:14;6.25;;;5.65;;
19623;SDS011;9959;49.798;9.928;2023-06-10T10:13:47;6.72;;;6.00;;
19623;SDS011;9959;49.798;9.928;2023-06-10T10:16:20;6.60;;;5.82;;
19623;SDS011;9959;49.798;9.928;2023-06-10T10:18:55;5.95;;;5.30;;
19623;SDS011;9959;49.798;9.928;2023-06-10T10:21:27;8.27;;;6.20;;
19623;SDS011;9959;49.798;9.928;2023-06-10T10:24:07;6.53;;;5.93;;
19623;SDS011;9959;49.798;9.928;2023-06-10T10:26:42;9.05;;;5.75;;
19623;SDS011;9959;49.798;9.928;2023-06-10T10:31:39;6.22;;;5.60;;
19623;SDS011;9959;49.798;9.928;2023-06-10T10:34:19;5.88;;;5.38;;
19623;SDS011;9959;49.798;9.928;2023-06-10T10:36:52;6.35;;;5.75;;
19623;SDS011;9959;49.798;9.928;2023-06-10T10:39:19;7.95;;;5.45;;
19623;SDS011;9959;49.798;9.928;2023-06-10T10:41:46;5.80;;;5.13;;
19623;SDS011;9959;49.798;9.928;2023-06-10T10:44:15;5.90;;;5.40;;
19623;SDS011;9959;49.798;9.928;2023-06-10T10:46:44;5.88;;;5.38;;
19623;SDS011;9959;49.798;9.928;2023-06-10T10:49:15;5.93;;;5.43;;
19623;SDS011;9959;49.798;9.928;2023-06-10T10:51:55;6.18;;;5.57;;
19623;SDS011;9959;49.798;9.928;2023-06-10T10:54:29;5.47;;;5.00;;
19623;SDS011;9959;49.798;9.928;2023-06-10T11:02:19;5.80;;;5.35;;
19623;SDS011;9959;49.798;9.928;2023-06-10T11:04:58;5.90;;;5.28;;
19623;SDS011;9959;49.798;9.928;2023-06-10T11:07:36;8.10;;;5.50;;
19623;SDS011;9959;49.798;9.928;2023-06-10T11:10:08;6.03;;;5.50;;
19623;SDS011;9959;49.798;9.928;2023-06-10T11:15:12;6.65;;;5.97;;
19623;SDS011;9959;49.798;9.928;2023-06-10T11:23:24;5.93;;;5.43;;
19623;SDS011;9959;49.798;9.928;2023-06-10T11:25:51;7.20;;;6.07;;
19623;SDS011;9959;49.798;9.928;2023-06-10T11:28:18;7.18;;;6.03;;
19623;SDS011;9959;49.798;9.928;2023-06-10T11:30:46;5.82;;;5.07;;
19623;SDS011;9959;49.798;9.928;2023-06-10T11:33:23;6.30;;;5.70;;
19623;SDS011;9959;49.798;9.928;2023-06-10T11:35:51;6.45;;;5.85;;
19623;SDS011;9959;49.798;9.928;2023-06-10T11:38:18;7.53;;;5.55;;
19623;SDS011;9959;49.798;9.928;2023-06-10T11:40:48;6.05;;;5.43;;
19623;SDS011;9959;49.798;9.928;2023-06-10T11:43:19;5.43;;;5.03;;
19623;SDS011;9959;49.798;9.928;2023-06-10T11:45:46;5.53;;;5.03;;
19623;SDS011;9959;49.798;9.928;2023-06-10T11:48:13;7.25;;;5.43;;
19623;SDS011;9959;49.798;9.928;2023-06-10T11:50:40;7.40;;;5.45;;
19623;SDS011;9959;49.798;9.928;2023-06-10T11:53:08;6.57;;;5.38;;
19623;SDS011;9959;49.798;9.928;2023-06-10T11:55:45;6.43;;;5.30;;
19623;SDS011;9959;49.798;9.928;2023-06-10T11:58:14;6.50;;;5.28;;
19623;SDS011;9959;49.798;9.928;2023-06-10T12:00:51;5.40;;;4.90;;
19623;SDS011;9959;49.798;9.928;2023-06-10T12:03:20;5.60;;;5.05;;
19623;SDS011;9959;49.798;9.928;2023-06-10T12:05:59;5.72;;;5.13;;
19623;SDS011;9959;49.798;9.928;2023-06-10T12:08:30;5.57;;;5.10;;
19623;SDS011;9959;49.798;9.928;2023-06-10T12:11:02;6.10;;;5.50;;
19623;SDS011;9959;49.798;9.928;2023-06-10T12:13:29;6.57;;;5.88;;
19623;SDS011;9959;49.798;9.928;2023-06-10T12:16:05;6.10;;;5.50;;
19623;SDS011;9959;49.798;9.928;2023-06-10T12:18:36;5.80;;;5.30;;
19623;SDS011;9959;49.798;9.928;2023-06-10T12:21:03;6.05;;;5.45;;
19623;SDS011;9959;49.798;9.928;2023-06-10T12:23:58;5.43;;;4.93;;
19623;SDS011;9959;49.798;9.928;2023-06-10T12:26:36;5.75;;;5.25;;
19623;SDS011;9959;49.798;9.928;2023-06-10T12:31:52;5.80;;;5.30;;
19623;SDS011;9959;49.798;9.928;2023-06-10T12:34:19;5.72;;;5.20;;
19623;SDS011;9959;49.798;9.928;2023-06-10T12:36:49;5.80;;;4.70;;
19623;SDS011;9959;49.798;9.928;2023-06-10T12:39:16;5.93;;;4.82;;
19623;SDS011;9959;49.798;9.928;2023-06-10T12:41:49;6.88;;;5.15;;
19623;SDS011;9959;49.798;9.928;2023-06-10T12:44:18;5.03;;;4.53;;
19623;SDS011;9959;49.798;9.928;2023-06-10T12:46:54;4.97;;;4.57;;
19623;SDS011;9959;49.798;9.928;2023-06-10T12:49:22;6.40;;;5.00;;
19623;SDS011;9959;49.798;9.928;2023-06-10T12:51:49;5.25;;;4.75;;
19623;SDS011;9959;49.798;9.928;2023-06-10T12:54:16;5.38;;;4.97;;
19623;SDS011;9959;49.798;9.928;2023-06-10T12:56:43;5.88;;;5.22;;
19623;SDS011;9959;49.798;9.928;2023-06-10T12:59:10;5.53;;;4.82;;
19623;SDS011;9959;49.798;9.928;2023-06-10T13:01:37;5.88;;;4.80;;
19623;SDS011;9959;49.798;9.928;2023-06-10T13:04:05;6.28;;;4.90;;
19623;SDS011;9959;49.798;9.928;2023-06-10T13:06:36;5.85;;;5.25;;
19623;SDS011;9959;49.798;9.928;2023-06-10T13:09:05;6.55;;;5.07;;
19623;SDS011;9959;49.798;9.928;2023-06-10T13:11:33;5.80;;;5.20;;
19623;SDS011;9959;49.798;9.928;2023-06-10T13:14:00;7.07;;;4.70;;
19623;SDS011;9959;49.798;9.928;2023-06-10T13:16:29;5.57;;;5.07;;
19623;SDS011;9959;49.798;9.928;2023-06-10T13:18:56;6.55;;;5.68;;
19623;SDS011;9959;49.798;9.928;2023-06-10T13:21:23;6.18;;;5.03;;
19623;SDS011;9959;49.798;9.928;2023-06-10T13:23:49;6.65;;;4.78;;
19623;SDS011;9959;49.798;9.928;2023-06-10T13:26:17;5.68;;;5.18;;
19623;SDS011;9959;49.798;9.928;2023-06-10T13:28:44;5.03;;;4.63;;
19623;SDS011;9959;49.798;9.928;2023-06-10T13:31:11;5.68;;;5.13;;
19623;SDS011;9959;49.798;9.928;2023-06-10T13:33:38;5.57;;;5.07;;
19623;SDS011;9959;49.798;9.928;2023-06-10T13:36:05;5.43;;;4.90;;
19623;SDS011;9959;49.798;9.928;2023-06-10T13:38:32;5.22;;;4.82;;
19623;SDS011;9959;49.798;9.928;2023-06-10T13:40:59;5.88;;;5.00;;
19623;SDS011;9959;49.798;9.928;2023-06-10T13:43:29;5.57;;;5.07;;
19623;SDS011;9959;49.798;9.928;2023-06-10T13:45:56;5.88;;;5.22;;
19623;SDS011;9959;49.798;9.928;2023-06-10T13:48:23;5.05;;;4.65;;
19623;SDS011;9959;49.798;9.928;2023-06-10T13:50:50;6.30;;;5.10;;
19623;SDS011;9959;49.798;9.928;2023-06-10T13:53:17;6.32;;;5.38;;
19623;SDS011;9959;49.798;9.928;2023-06-10T13:55:44;6.05;;;5.43;;
19623;SDS011;9959;49.798;9.928;2023-06-10T13:58:11;5.82;;;5.32;;
19623;SDS011;9959;49.798;9.928;2023-06-10T14:00:38;5.97;;;5.38;;
19623;SDS011;9959;49.798;9.928;2023-06-10T14:03:05;5.97;;;5.38;;
19623;SDS011;9959;49.798;9.928;2023-06-10T14:05:32;7.05;;;5.53;;
19623;SDS011;9959;49.798;9.928;2023-06-10T14:07:59;6.15;;;5.55;;
19623;SDS011;9959;49.798;9.928;2023-06-10T14:10:26;6.45;;;5.70;;
19623;SDS011;9959;49.798;9.928;2023-06-10T14:12:53;6.65;;;5.38;;
19623;SDS011;9959;49.798;9.928;2023-06-10T14:15:20;5.85;;;5.25;;
19623;SDS011;9959;49.798;9.928;2023-06-10T14:17:47;6.38;;;5.45;;
19623;SDS011;9959;49.798;9.928;2023-06-10T14:20:14;5.82;;;4.72;;
19623;SDS011;9959;49.798;9.928;2023-06-10T14:22:43;5.70;;;5.07;;
19623;SDS011;9959;49.798;9.928;2023-06-10T14:25:10;4.78;;;4.45;;
19623;SDS011;9959;49.798;9.928;2023-06-10T14:27:38;4.70;;;4.30;;
19623;SDS011;9959;49.798;9.928;2023-06-10T14:30:05;6.80;;;4.50;;
19623;SDS011;9959;49.798;9.928;2023-06-10T14:32:32;5.35;;;4.57;;
19623;SDS011;9959;49.798;9.928;2023-06-10T14:34:59;5.38;;;4.88;;
19623;SDS011;9959;49.798;9.928;2023-06-10T14:37:26;5.10;;;4.70;;
19623;SDS011;9959;49.798;9.928;2023-06-10T14:39:53;4.82;;;4.43;;
19623;SDS011;9959;49.798;9.928;2023-06-10T14:42:20;4.35;;;4.05;;
19623;SDS011;9959;49.798;9.928;2023-06-10T14:44:47;6.40;;;4.30;;
19623;SDS011;9959;49.798;9.928;2023-06-10T14:47:14;5.88;;;4.47;;
19623;SDS011;9959;49.798;9.928;2023-06-10T14:49:41;4.85;;;4.45;;
19623;SDS011;9959;49.798;9.928;2023-06-10T14:52:08;4.80;;;4.45;;
19623;SDS011;9959;49.798;9.928;2023-06-10T14:54:35;5.90;;;4.25;;
19623;SDS011;9959;49.798;9.928;2023-06-10T14:57:02;4.75;;;4.35;;
19623;SDS011;9959;49.798;9.928;2023-06-10T14:59:29;6.68;;;4.28;;
19623;SDS011;9959;49.798;9.928;2023-06-10T15:01:56;5.80;;;4.57;;
19623;SDS011;9959;49.798;9.928;2023-06-10T15:04:25;4.65;;;4.25;;
19623;SDS011;9959;49.798;9.928;2023-06-10T15:06:52;5.55;;;4.47;;
19623;SDS011;9959;49.798;9.928;2023-06-10T15:09:18;6.28;;;4.45;;
19623;SDS011;9959;49.798;9.928;2023-06-10T15:11:46;4.40;;;4.00;;
19623;SDS011;9959;49.798;9.928;2023-06-10T15:14:13;4.85;;;4.45;;
19623;SDS011;9959;49.798;9.928;2023-06-10T15:16:40;4.30;;;3.90;;
19623;SDS011;9959;49.798;9.928;2023-06-10T15:19:07;4.97;;;4.28;;